Terminal Aerodrome Forecast
Issued by NWS

Home | Current Version | Previous Version | Text Only | Print | Product List | Glossary Off
Versions: 1 2 3 4 5 6 7 8 9 10 11 12 13 14 15 16 17 18 19 20 21 22 23 24 25 26 27 28 29 30 31 32 33 34 35 36 37 38 39 40 41 42

000
FTUS43 KGRB 191739
TAFRHI
TAF
KRHI 191739Z 1918/2018 05011KT 5SM BR OVC015
      TEMPO 1918/1920 3SM -FZRASN OVC008
     FM192000 05012G20KT 1 1/2SM -FZRASN BR OVC006
     FM192100 05012G21KT 2SM -FZRAPL BR OVC008
     FM192300 05012G21KT 4SM -FZRA OVC008
     FM200300 05010KT 6SM -FZDZ BR OVC008
     FM201100 06006KT 3SM -FZDZSN BR OVC003=

USA.gov is the U.S. government's official web portal to all federal, state and local government web resources and services.